Time;durP1;ratioP1;P1;durP2;ratioP2;P2;SDS_P1;SDS_P2;PMS_P1;PMS_P2;Temp;Humidity;BMP_temperature;BMP_pressure;BME280_temperature;BME280_humidity;BME280_pressure;Samples;Min_cycle;Max_cycle;Signal;HPM_P1;HPM_P2
2023/10/06 00:01:42;;;;;;;0.50;0.40;;;12.80;99.90;;;;;;4994122;28;20438;-80
2023/10/06 00:04:13;;;;;;;0.53;0.50;;;12.70;99.90;;;;;;4994361;28;20457;-81
2023/10/06 00:06:41;;;;;;;0.50;0.40;;;12.70;99.90;;;;;;4994495;28;20553;-81
2023/10/06 00:09:09;;;;;;;0.50;0.40;;;12.70;99.90;;;;;;4994596;28;20438;-81
2023/10/06 00:11:37;;;;;;;0.50;0.40;;;12.70;99.90;;;;;;4994075;28;20482;-81
2023/10/06 00:14:09;;;;;;;0.50;0.40;;;12.60;99.90;;;;;;4994340;28;20888;-81
2023/10/06 00:16:39;;;;;;;2.35;2.25;;;12.60;99.90;;;;;;4994018;28;20831;-81
2023/10/06 00:19:21;;;;;;;0.50;0.40;;;12.60;99.90;;;;;;4994497;28;20200;-81
2023/10/06 00:22:01;;;;;;;0.50;0.40;;;12.50;99.90;;;;;;4987025;28;20619;-82
2023/10/06 00:24:28;;;;;;;0.50;0.40;;;12.50;99.90;;;;;;4993852;28;20493;-80
2023/10/06 00:26:57;;;;;;;0.50;0.40;;;12.40;99.90;;;;;;4993603;28;20462;-80
2023/10/06 00:29:24;;;;;;;0.50;0.40;;;12.40;99.90;;;;;;5001663;28;20992;-81
2023/10/06 00:31:51;;;;;;;0.50;0.40;;;12.30;99.90;;;;;;4994040;28;20478;-81
2023/10/06 00:34:19;;;;;;;0.50;0.40;;;12.30;99.90;;;;;;4993704;28;20451;-79
2023/10/06 00:36:51;;;;;;;0.60;0.60;;;12.30;99.90;;;;;;4993570;28;20219;-81
2023/10/06 00:39:22;;;;;;;0.50;0.40;;;12.30;99.90;;;;;;4993404;28;20486;-79
2023/10/06 00:41:56;;;;;;;0.50;0.40;;;12.30;99.90;;;;;;4993990;28;20294;-80
2023/10/06 00:44:24;;;;;;;0.50;0.40;;;12.20;99.90;;;;;;4993642;28;20829;-81
2023/10/06 00:46:51;;;;;;;0.50;0.40;;;12.20;99.90;;;;;;4993713;28;20977;-82
2023/10/06 00:49:19;;;;;;;0.50;0.40;;;12.20;99.90;;;;;;4993622;28;20206;-81
2023/10/06 00:51:47;;;;;;;0.70;0.70;;;12.10;99.90;;;;;;4993781;28;20713;-80
2023/10/06 00:54:14;;;;;;;0.50;0.40;;;12.10;99.90;;;;;;5001373;28;20573;-81
2023/10/06 00:56:42;;;;;;;0.50;0.40;;;12.10;99.90;;;;;;4993641;28;20474;-81
2023/10/06 00:59:12;;;;;;;0.50;0.40;;;12.10;99.90;;;;;;4993554;28;20446;-81
2023/10/06 01:01:39;;;;;;;1.17;1.17;;;12.10;99.90;;;;;;4993443;28;20442;-80
2023/10/06 01:04:08;;;;;;;3.22;3.08;;;12.10;99.90;;;;;;4992826;28;20447;-81
2023/10/06 01:06:36;;;;;;;0.50;0.40;;;12.00;99.90;;;;;;4995172;28;20627;-81
2023/10/06 01:09:12;;;;;;;0.50;0.40;;;12.00;99.90;;;;;;4998764;28;20448;-80
2023/10/06 01:11:45;;;;;;;0.50;0.47;;;12.00;99.90;;;;;;5001144;28;20494;-81
2023/10/06 01:14:14;;;;;;;1.73;1.63;;;12.10;99.90;;;;;;4993002;28;20234;-81
2023/10/06 01:16:43;;;;;;;0.50;0.40;;;12.10;99.90;;;;;;4993073;28;20518;-78
2023/10/06 01:19:17;;;;;;;0.50;0.40;;;12.00;99.90;;;;;;4993043;28;20445;-81
2023/10/06 01:21:46;;;;;;;5.30;1.63;;;12.00;99.90;;;;;;5001459;28;20802;-81
2023/10/06 01:24:15;;;;;;;0.50;0.40;;;12.00;99.90;;;;;;4993061;28;20442;-80
2023/10/06 01:26:42;;;;;;;0.50;0.40;;;12.00;99.90;;;;;;5001010;28;20470;-81
2023/10/06 01:29:13;;;;;;;0.50;0.40;;;12.00;99.90;;;;;;4985140;28;20469;-81
2023/10/06 01:31:41;;;;;;;0.50;0.40;;;12.00;99.90;;;;;;4989545;28;20494;-81
2023/10/06 01:34:10;;;;;;;0.50;0.40;;;12.00;99.90;;;;;;4992710;28;20502;-81
2023/10/06 01:36:37;;;;;;;0.73;0.73;;;12.00;99.90;;;;;;4992338;28;20849;-81
2023/10/06 01:39:05;;;;;;;0.50;0.40;;;12.00;99.90;;;;;;4992733;28;20442;-81
2023/10/06 01:41:35;;;;;;;0.50;0.40;;;12.00;99.90;;;;;;4992266;28;20434;-81
2023/10/06 01:44:09;;;;;;;0.50;0.40;;;12.00;99.90;;;;;;4992438;28;20517;-81
2023/10/06 01:46:37;;;;;;;0.50;0.40;;;12.00;99.90;;;;;;4992433;28;20476;-81
2023/10/06 01:49:04;;;;;;;0.50;0.40;;;12.00;99.90;;;;;;4992414;28;20445;-81
2023/10/06 01:51:35;;;;;;;0.50;0.40;;;12.00;99.90;;;;;;4992263;28;21068;-81
2023/10/06 01:54:02;;;;;;;0.50;0.40;;;12.00;99.90;;;;;;4992360;28;20493;-81
2023/10/06 01:56:31;;;;;;;0.50;0.40;;;12.00;99.90;;;;;;4991629;28;20478;-81
2023/10/06 01:58:59;;;;;;;0.50;0.40;;;12.00;99.90;;;;;;4992397;28;20821;-80
2023/10/06 02:01:26;;;;;;;0.50;0.47;;;12.00;99.90;;;;;;4992301;28;20446;-81
2023/10/06 02:03:52;;;;;;;0.50;0.40;;;12.00;99.90;;;;;;4992189;28;20835;-81
2023/10/06 02:06:19;;;;;;;0.50;0.40;;;12.00;99.90;;;;;;4992083;28;20467;-81
2023/10/06 02:08:51;;;;;;;0.50;0.40;;;12.00;99.90;;;;;;4983979;28;20442;-81
2023/10/06 02:11:18;;;;;;;0.50;0.40;;;12.00;99.90;;;;;;4992150;28;20477;-81
2023/10/06 02:13:45;;;;;;;0.50;0.40;;;12.00;99.90;;;;;;4992160;28;20469;-81
2023/10/06 02:16:13;;;;;;;0.50;0.40;;;12.00;99.90;;;;;;4991539;28;20473;-80
2023/10/06 02:18:40;;;;;;;0.50;0.40;;;12.00;99.90;;;;;;4991981;28;20997;-81
2023/10/06 02:21:11;;;;;;;2.00;1.90;;;12.00;99.90;;;;;;4991969;28;20454;-80
2023/10/06 02:23:40;;;;;;;0.60;0.60;;;12.00;99.90;;;;;;4991944;28;20453;-80
2023/10/06 02:26:08;;;;;;;1.30;1.30;;;12.00;99.90;;;;;;4991717;28;21029;-81
2023/10/06 02:28:36;;;;;;;0.50;0.50;;;12.00;99.90;;;;;;4991719;28;21195;-81
2023/10/06 02:31:05;;;;;;;0.50;0.40;;;12.00;99.90;;;;;;4991933;28;20460;-81
2023/10/06 02:33:36;;;;;;;0.60;0.53;;;12.00;99.90;;;;;;4991713;28;20446;-81
2023/10/06 02:36:13;;;;;;;0.70;0.70;;;12.00;99.90;;;;;;4991778;28;20467;-81
2023/10/06 02:38:46;;;;;;;0.50;0.40;;;12.00;99.90;;;;;;4991752;28;20961;-82
2023/10/06 02:41:18;;;;;;;1.93;1.83;;;12.10;99.90;;;;;;4992114;28;20451;-80
2023/10/06 02:43:46;;;;;;;0.50;0.40;;;12.10;99.90;;;;;;4991622;28;20442;-81
2023/10/06 02:46:14;;;;;;;0.50;0.40;;;12.20;99.90;;;;;;4991372;28;20550;-81
2023/10/06 02:48:48;;;;;;;0.50;0.40;;;12.20;99.90;;;;;;4991474;28;20967;-81
2023/10/06 02:51:20;;;;;;;0.50;0.40;;;12.20;99.90;;;;;;4991937;28;20815;-81
2023/10/06 02:53:50;;;;;;;0.50;0.40;;;12.20;99.90;;;;;;4991592;28;20442;-79
2023/10/06 02:56:21;;;;;;;0.80;0.80;;;12.20;99.90;;;;;;4991989;28;20474;-81
2023/10/06 02:58:50;;;;;;;0.50;0.40;;;12.20;99.90;;;;;;4991457;28;20485;-81
2023/10/06 03:01:18;;;;;;;0.50;0.40;;;12.20;99.90;;;;;;4991568;28;20447;-81
2023/10/06 03:03:51;;;;;;;0.50;0.40;;;12.10;99.90;;;;;;4991466;28;20441;-81
2023/10/06 03:06:19;;;;;;;0.50;0.40;;;12.10;99.90;;;;;;4991672;28;20466;-81
2023/10/06 03:08:47;;;;;;;1.37;0.87;;;12.10;99.90;;;;;;4991438;28;20444;-81
2023/10/06 03:11:23;;;;;;;0.60;0.60;;;12.00;99.90;;;;;;4991637;28;20446;-81
2023/10/06 03:13:52;;;;;;;0.50;0.40;;;12.00;99.90;;;;;;4992931;28;20508;-81
2023/10/06 03:16:20;;;;;;;0.50;0.40;;;12.00;99.90;;;;;;4993497;28;20561;-80
2023/10/06 03:18:52;;;;;;;0.50;0.40;;;12.00;99.90;;;;;;4992434;28;20447;-81
2023/10/06 03:21:19;;;;;;;1.37;1.03;;;12.00;99.90;;;;;;4993237;28;20486;-81
2023/10/06 03:23:47;;;;;;;0.73;0.70;;;12.00;99.90;;;;;;4993826;28;20443;-81
2023/10/06 03:26:24;;;;;;;0.50;0.40;;;11.90;99.90;;;;;;4993274;28;20466;-83
2023/10/06 03:28:53;;;;;;;32.17;2.37;;;11.90;99.90;;;;;;4995419;28;20442;-82
2023/10/06 03:31:23;;;;;;;0.50;0.40;;;11.90;99.90;;;;;;4997330;28;20480;-81
2023/10/06 03:33:54;;;;;;;0.50;0.40;;;11.90;99.90;;;;;;4997254;28;20450;-81
2023/10/06 03:36:27;;;;;;;0.50;0.40;;;11.90;99.90;;;;;;4996909;28;20482;-82
2023/10/06 03:38:56;;;;;;;0.50;0.40;;;11.90;99.90;;;;;;4996777;28;20481;-81
2023/10/06 03:41:26;;;;;;;0.50;0.50;;;11.90;99.90;;;;;;4997013;28;20447;-82
2023/10/06 03:43:57;;;;;;;0.70;0.70;;;11.80;99.90;;;;;;4989206;28;20858;-81
2023/10/06 03:46:24;;;;;;;0.50;0.40;;;11.80;99.90;;;;;;4996776;28;20538;-81
2023/10/06 03:48:53;;;;;;;0.50;0.50;;;11.90;99.90;;;;;;4988925;28;20446;-82
2023/10/06 03:51:21;;;;;;;1.20;1.20;;;11.90;99.90;;;;;;4997249;28;20570;-82
2023/10/06 03:53:49;;;;;;;0.93;0.93;;;12.00;99.90;;;;;;4996914;28;21026;-82
2023/10/06 03:56:17;;;;;;;0.50;0.40;;;11.90;99.90;;;;;;4996355;28;20479;-82
2023/10/06 03:58:45;;;;;;;1.17;1.17;;;11.90;99.90;;;;;;4996269;28;20458;-82
2023/10/06 04:01:17;;;;;;;0.50;0.40;;;11.90;99.90;;;;;;4995369;28;20462;-81
2023/10/06 04:03:44;;;;;;;0.50;0.40;;;11.90;99.90;;;;;;4994853;28;20453;-81
2023/10/06 04:06:15;;;;;;;1.20;1.10;;;11.90;99.90;;;;;;4994990;28;20458;-82
2023/10/06 04:08:44;;;;;;;0.87;0.87;;;11.90;99.90;;;;;;4995021;28;20439;-81
2023/10/06 04:11:14;;;;;;;0.50;0.40;;;11.90;99.90;;;;;;4994743;28;20443;-81
2023/10/06 04:13:41;;;;;;;0.60;0.60;;;11.90;99.90;;;;;;4994846;28;20501;-81
2023/10/06 04:16:08;;;;;;;0.50;0.40;;;11.90;99.90;;;;;;4994729;28;20470;-81
2023/10/06 04:18:35;;;;;;;0.50;0.40;;;11.90;99.90;;;;;;4994533;28;20453;-81
2023/10/06 04:21:03;;;;;;;0.50;0.40;;;11.80;99.90;;;;;;4995020;28;20453;-81
2023/10/06 04:23:31;;;;;;;0.50;0.40;;;11.80;99.90;;;;;;4994141;28;20478;-80
2023/10/06 04:25:58;;;;;;;1.17;1.07;;;11.80;99.90;;;;;;4995710;28;20463;-81
2023/10/06 04:28:27;;;;;;;0.50;0.40;;;11.80;99.90;;;;;;4994620;28;20458;-80
2023/10/06 04:30:57;;;;;;;0.50;0.40;;;11.80;99.90;;;;;;4996647;28;20470;-82
2023/10/06 04:33:25;;;;;;;0.50;0.40;;;11.80;99.90;;;;;;4995545;28;20497;-81
2023/10/06 04:35:55;;;;;;;0.73;0.73;;;11.70;99.90;;;;;;4994991;28;20502;-82
2023/10/06 04:38:23;;;;;;;0.50;0.40;;;11.70;99.90;;;;;;4995028;28;20504;-82
2023/10/06 04:40:51;;;;;;;0.50;0.40;;;11.70;99.90;;;;;;4993805;28;20986;-81
2023/10/06 04:43:18;;;;;;;0.50;0.50;;;11.70;99.90;;;;;;4994598;28;20447;-82
2023/10/06 04:45:45;;;;;;;0.50;0.40;;;11.70;99.90;;;;;;4994936;28;20455;-81
2023/10/06 04:48:14;;;;;;;0.50;0.40;;;11.70;99.90;;;;;;4994324;28;20444;-81
2023/10/06 04:50:42;;;;;;;1.77;1.02;;;11.70;99.90;;;;;;4994152;28;20926;-81
2023/10/06 04:53:11;;;;;;;0.90;0.90;;;11.70;99.90;;;;;;4994117;28;20215;-82
2023/10/06 04:55:38;;;;;;;0.70;0.67;;;11.70;99.90;;;;;;4993782;28;20450;-82
2023/10/06 04:58:09;;;;;;;2.30;1.90;;;11.70;99.90;;;;;;4994906;28;20461;-82
2023/10/06 05:00:36;;;;;;;0.70;0.70;;;11.70;99.90;;;;;;4993975;28;20807;-81
2023/10/06 05:03:05;;;;;;;0.50;0.40;;;11.60;99.90;;;;;;4994184;28;20800;-81
2023/10/06 05:05:36;;;;;;;0.50;0.40;;;11.60;99.90;;;;;;4993798;28;20469;-81
2023/10/06 05:08:03;;;;;;;3.33;1.63;;;11.70;99.90;;;;;;4994626;28;20996;-81
2023/10/06 05:10:31;;;;;;;0.50;0.50;;;11.70;99.90;;;;;;4993976;28;20462;-82
2023/10/06 05:12:59;;;;;;;0.50;0.40;;;11.60;99.90;;;;;;4994173;28;20479;-82
2023/10/06 05:15:27;;;;;;;1.10;1.10;;;11.70;99.90;;;;;;4993834;28;20486;-81
2023/10/06 05:17:55;;;;;;;0.57;0.50;;;11.70;99.90;;;;;;4993470;28;20449;-81
2023/10/06 05:20:23;;;;;;;0.50;0.40;;;11.60;99.90;;;;;;4993643;28;20454;-81
2023/10/06 05:22:52;;;;;;;0.60;0.60;;;11.60;99.90;;;;;;4994532;28;20450;-82
2023/10/06 05:25:19;;;;;;;0.50;0.40;;;11.70;99.90;;;;;;4993592;28;20446;-81
2023/10/06 05:27:47;;;;;;;0.50;0.40;;;11.70;99.90;;;;;;4993477;28;21047;-82
2023/10/06 05:30:14;;;;;;;4.77;1.87;;;11.70;99.90;;;;;;4996141;28;20545;-82
2023/10/06 05:32:42;;;;;;;1.17;1.07;;;11.70;99.90;;;;;;4994875;28;20482;-81
2023/10/06 05:35:13;;;;;;;0.50;0.40;;;11.70;99.90;;;;;;4994239;28;20498;-81
2023/10/06 05:37:41;;;;;;;0.60;0.60;;;11.70;99.90;;;;;;4994152;28;20473;-81
2023/10/06 05:40:12;;;;;;;0.50;0.40;;;11.80;99.90;;;;;;4994015;28;20489;-80
2023/10/06 05:42:40;;;;;;;1.57;0.80;;;11.70;99.90;;;;;;4994620;28;20444;-80
2023/10/06 05:45:15;;;;;;;1.47;1.00;;;11.70;99.90;;;;;;4993579;28;20496;-81
2023/10/06 05:47:44;;;;;;;0.50;0.40;;;11.70;99.90;;;;;;4993207;28;20462;-80
2023/10/06 05:50:12;;;;;;;0.50;0.40;;;11.70;99.90;;;;;;4993990;28;20789;-80
2023/10/06 05:52:39;;;;;;;0.50;0.40;;;11.70;99.90;;;;;;4993231;28;20470;-80
2023/10/06 05:55:09;;;;;;;1.37;1.27;;;11.70;99.90;;;;;;4994896;28;20442;-80
2023/10/06 05:57:39;;;;;;;0.60;0.50;;;11.70;99.90;;;;;;5018916;23;20571;-79
2023/10/06 06:00:09;;;;;;;0.50;0.40;;;11.80;99.90;;;;;;5007664;28;20460;-80
2023/10/06 06:02:37;;;;;;;2.23;0.80;;;11.80;99.90;;;;;;5021894;28;20953;-79
2023/10/06 06:05:08;;;;;;;0.50;0.50;;;11.80;99.90;;;;;;5025211;28;20528;-81
2023/10/06 06:07:36;;;;;;;1.03;0.93;;;11.90;99.90;;;;;;5023856;28;20469;-78
2023/10/06 06:10:04;;;;;;;0.57;0.57;;;11.90;99.90;;;;;;5032324;28;20500;-79
2023/10/06 06:12:31;;;;;;;1.60;0.93;;;11.90;99.90;;;;;;5032991;28;20448;-80
2023/10/06 06:14:58;;;;;;;0.50;0.40;;;12.00;99.90;;;;;;5016701;28;20916;-79
2023/10/06 06:17:25;;;;;;;1.03;1.03;;;12.00;99.90;;;;;;5024368;28;20495;-79
2023/10/06 06:19:53;;;;;;;2.60;0.93;;;12.10;99.90;;;;;;5022313;28;20448;-79
2023/10/06 06:22:21;;;;;;;0.50;0.40;;;12.20;99.90;;;;;;5018155;28;20545;-78
2023/10/06 06:24:49;;;;;;;0.50;0.40;;;12.20;99.90;;;;;;5008335;28;20446;-80
2023/10/06 06:27:16;;;;;;;0.50;0.40;;;12.30;99.90;;;;;;5016275;28;20452;-80
2023/10/06 06:29:46;;;;;;;1.77;1.63;;;12.40;99.90;;;;;;5016383;28;20464;-81
2023/10/06 06:32:14;;;;;;;0.50;0.40;;;12.40;99.90;;;;;;5018168;28;20441;-80
2023/10/06 06:34:41;;;;;;;0.50;0.40;;;12.60;99.90;;;;;;5024670;28;21083;-82
2023/10/06 06:37:09;;;;;;;0.50;0.50;;;12.60;99.90;;;;;;5017116;28;20450;-78
2023/10/06 06:39:38;;;;;;;1.53;1.47;;;12.70;99.90;;;;;;5021187;28;20457;-79
2023/10/06 06:42:05;;;;;;;0.50;0.40;;;12.80;99.90;;;;;;5024409;28;20446;-79
2023/10/06 06:44:32;;;;;;;0.50;0.40;;;12.90;99.90;;;;;;5023361;28;20528;-80
2023/10/06 06:47:00;;;;;;;0.50;0.40;;;13.00;99.90;;;;;;5026880;28;20530;-78
2023/10/06 06:49:27;;;;;;;0.50;0.40;;;13.10;99.90;;;;;;5029694;28;20442;-79
2023/10/06 06:51:53;;;;;;;2.60;2.40;;;13.10;99.90;;;;;;5024418;28;20512;-79
2023/10/06 06:54:20;;;;;;;0.50;0.40;;;13.20;99.90;;;;;;5024280;28;20556;-79
2023/10/06 06:56:48;;;;;;;0.60;0.60;;;13.20;99.90;;;;;;5025348;28;20443;-79
2023/10/06 06:59:17;;;;;;;1.03;0.97;;;13.20;99.90;;;;;;5029499;28;20481;-79
2023/10/06 07:01:44;;;;;;;0.50;0.40;;;13.30;99.90;;;;;;5023954;28;20449;-79
2023/10/06 07:04:12;;;;;;;0.50;0.40;;;13.40;99.90;;;;;;5020546;28;20464;-81
2023/10/06 07:06:38;;;;;;;0.50;0.40;;;13.40;99.90;;;;;;5029213;28;20436;-79
2023/10/06 07:09:12;;;;;;;0.60;0.50;;;13.50;99.90;;;;;;5020616;28;20528;-77
2023/10/06 07:11:39;;;;;;;0.50;0.50;;;13.50;99.90;;;;;;5020209;28;20460;-80
2023/10/06 07:14:08;;;;;;;1.87;1.43;;;13.60;99.90;;;;;;5020449;28;20478;-81
2023/10/06 07:16:35;;;;;;;1.30;1.20;;;13.60;99.90;;;;;;5020910;28;20539;-80
2023/10/06 07:19:06;;;;;;;0.50;0.40;;;13.70;99.90;;;;;;5016642;28;20968;-80
2023/10/06 07:21:33;;;;;;;0.50;0.40;;;13.70;99.90;;;;;;5033251;28;20446;-80
2023/10/06 07:23:59;;;;;;;5.60;0.87;;;13.80;99.90;;;;;;5028626;28;20442;-80
2023/10/06 07:26:26;;;;;;;0.90;0.90;;;13.80;99.90;;;;;;5019044;28;20524;-81
2023/10/06 07:28:54;;;;;;;0.70;0.70;;;13.90;99.90;;;;;;5018780;28;20673;-80
2023/10/06 07:31:24;;;;;;;0.50;0.40;;;13.90;99.90;;;;;;5018888;28;20488;-79
2023/10/06 07:33:52;;;;;;;2.27;1.07;;;13.90;99.90;;;;;;5019156;28;20481;-80
2023/10/06 07:36:19;;;;;;;3.27;0.93;;;13.90;99.90;;;;;;5027359;28;20782;-79
2023/10/06 07:38:46;;;;;;;0.50;0.50;;;14.00;99.90;;;;;;5019098;28;20987;-81
2023/10/06 07:41:18;;;;;;;3.50;2.80;;;14.20;99.90;;;;;;5027115;28;20520;-80
2023/10/06 07:43:48;;;;;;;1.53;1.33;;;14.30;99.90;;;;;;5020426;28;20806;-80
2023/10/06 07:46:16;;;;;;;0.50;0.40;;;14.60;99.90;;;;;;5028739;28;20502;-78
2023/10/06 07:48:45;;;;;;;0.73;0.60;;;14.80;99.90;;;;;;5025873;28;20451;-80
2023/10/06 07:51:14;;;;;;;3.17;1.30;;;15.00;99.90;;;;;;5036111;28;20442;-80
2023/10/06 07:53:41;;;;;;;1.47;1.37;;;15.20;99.90;;;;;;5019667;28;20536;-80
2023/10/06 07:56:08;;;;;;;0.60;0.60;;;15.30;99.90;;;;;;5018779;28;20446;-81
2023/10/06 07:58:37;;;;;;;0.50;0.40;;;15.40;99.90;;;;;;5018833;28;20465;-81
2023/10/06 08:01:07;;;;;;;0.50;0.40;;;15.30;99.90;;;;;;5022426;28;20999;-81
2023/10/06 08:03:37;;;;;;;0.80;0.80;;;15.40;99.90;;;;;;5022428;28;20534;-81
2023/10/06 08:06:06;;;;;;;0.50;0.40;;;15.50;99.90;;;;;;5010770;28;20446;-81
2023/10/06 08:08:34;;;;;;;0.50;0.40;;;15.60;99.90;;;;;;5018288;28;20465;-82
2023/10/06 08:11:02;;;;;;;0.50;0.40;;;15.60;99.90;;;;;;5017633;28;20445;-80
2023/10/06 08:13:31;;;;;;;1.00;1.00;;;15.80;99.90;;;;;;5018181;28;20987;-80
2023/10/06 08:15:58;;;;;;;0.50;0.40;;;16.30;99.90;;;;;;5020837;28;20443;-81
2023/10/06 08:18:26;;;;;;;0.60;0.40;;;16.80;99.90;;;;;;5023470;28;20467;-81
2023/10/06 08:20:53;;;;;;;0.50;0.40;;;17.20;99.90;;;;;;5020384;28;20435;-81
2023/10/06 08:23:22;;;;;;;0.50;0.30;;;17.50;99.90;;;;;;5024383;28;20439;-80
2023/10/06 08:25:49;;;;;;;0.70;0.70;;;18.00;99.90;;;;;;5020371;28;20435;-80
2023/10/06 08:28:16;;;;;;;0.60;0.50;;;18.20;99.90;;;;;;5025052;28;20546;-81
2023/10/06 08:30:43;;;;;;;1.13;0.60;;;18.20;99.90;;;;;;5018071;28;20477;-80
2023/10/06 08:33:10;;;;;;;0.90;0.70;;;18.60;99.90;;;;;;5019288;28;20443;-81
2023/10/06 08:35:40;;;;;;;0.60;0.50;;;18.70;99.90;;;;;;5018796;28;20443;-79
2023/10/06 08:38:07;;;;;;;0.87;0.57;;;18.80;99.90;;;;;;5027705;28;20833;-80
2023/10/06 08:40:37;;;;;;;0.50;0.40;;;19.10;99.90;;;;;;5018594;28;20456;-81
2023/10/06 08:43:07;;;;;;;0.63;0.60;;;19.30;99.90;;;;;;5018728;28;20954;-81
2023/10/06 08:45:40;;;;;;;3.03;1.70;;;19.60;99.90;;;;;;5018627;28;20446;-81
2023/10/06 08:48:10;;;;;;;0.53;0.53;;;19.40;99.90;;;;;;5017928;28;20998;-80
2023/10/06 08:50:38;;;;;;;4.03;3.70;;;19.50;99.90;;;;;;5018186;28;20439;-80
2023/10/06 08:53:09;;;;;;;0.50;0.40;;;19.70;99.90;;;;;;5018075;28;20446;-80
2023/10/06 08:55:38;;;;;;;0.70;0.70;;;20.10;99.90;;;;;;5017893;28;20479;-80
2023/10/06 08:58:07;;;;;;;0.60;0.60;;;20.90;99.90;;;;;;5008598;28;20458;-77
2023/10/06 09:00:36;;;;;;;1.10;0.50;;;20.70;99.90;;;;;;5017705;28;20927;-80
2023/10/06 09:03:08;;;;;;;0.50;0.30;;;20.60;99.90;;;;;;5019060;28;20435;-81
2023/10/06 09:05:37;;;;;;;0.80;0.53;;;20.80;99.90;;;;;;5018125;28;20432;-80
2023/10/06 09:08:06;;;;;;;1.23;0.93;;;21.10;99.90;;;;;;5018786;28;20459;-78
2023/10/06 09:10:34;;;;;;;0.50;0.30;;;20.80;99.90;;;;;;5018084;28;20443;-81
2023/10/06 09:13:05;;;;;;;0.50;0.30;;;20.70;99.90;;;;;;5018059;28;20443;-81
2023/10/06 09:15:35;;;;;;;0.50;0.40;;;20.50;99.90;;;;;;5019487;28;20463;-79
2023/10/06 09:18:18;;;;;;;0.50;0.30;;;20.50;99.90;;;;;;5017950;28;20451;-81
2023/10/06 09:20:47;;;;;;;0.50;0.30;;;20.50;99.90;;;;;;5018767;28;20784;-80
2023/10/06 09:23:30;;;;;;;0.50;0.40;;;20.60;99.90;;;;;;5018473;28;20891;-80
2023/10/06 09:25:57;;;;;;;2.07;0.60;;;20.90;99.90;;;;;;5017061;28;20515;-80
2023/10/06 09:28:26;;;;;;;0.50;0.40;;;21.20;99.90;;;;;;5018142;28;20467;-79
2023/10/06 09:30:57;;;;;;;0.50;0.30;;;21.60;99.90;;;;;;5018510;28;20439;-81
2023/10/06 09:33:26;;;;;;;0.70;0.70;;;21.30;99.90;;;;;;5031300;28;20434;-81
2023/10/06 09:36:06;;;;;;;0.50;0.40;;;20.90;99.90;;;;;;5019458;28;20475;-81
2023/10/06 09:38:33;;;;;;;0.50;0.40;;;20.40;99.90;;;;;;5025895;28;20513;-80
2023/10/06 09:41:00;;;;;;;0.50;0.40;;;20.20;99.90;;;;;;5019952;28;20482;-80
2023/10/06 09:43:33;;;;;;;0.70;0.70;;;19.70;99.90;;;;;;5031195;28;20443;-80
2023/10/06 09:46:07;;;;;;;8.60;1.20;;;19.60;99.90;;;;;;5019316;28;20531;-81
2023/10/06 09:48:37;;;;;;;2.13;1.27;;;19.70;99.90;;;;;;5021379;28;20570;-81
2023/10/06 09:51:07;;;;;;;1.33;1.23;;;19.70;99.90;;;;;;5017403;28;20535;-81
2023/10/06 09:53:38;;;;;;;0.50;0.30;;;19.80;99.90;;;;;;5017285;28;20439;-82
2023/10/06 09:56:07;;;;;;;0.50;0.40;;;19.70;99.90;;;;;;5026119;28;20466;-80
2023/10/06 09:58:36;;;;;;;1.63;1.00;;;19.80;99.90;;;;;;5028036;28;20469;-80
2023/10/06 10:01:03;;;;;;;0.97;0.97;;;20.00;99.90;;;;;;5018698;28;20440;-81
2023/10/06 10:03:33;;;;;;;0.50;0.50;;;19.80;99.90;;;;;;5016825;28;20882;-81
2023/10/06 10:06:04;;;;;;;0.50;0.30;;;19.70;99.90;;;;;;5016202;28;20443;-82
2023/10/06 10:08:32;;;;;;;0.50;0.30;;;19.60;99.90;;;;;;5015936;28;20470;-81
2023/10/06 10:11:01;;;;;;;0.70;0.60;;;19.30;99.90;;;;;;5016477;28;20447;-81
2023/10/06 10:14:06;;;;;;;6.23;1.80;;;19.20;99.90;;;;;;5015866;28;20543;-80
2023/10/06 10:16:49;;;;;;;0.50;0.50;;;18.90;99.90;;;;;;5015393;28;20435;-80
2023/10/06 10:19:20;;;;;;;0.60;0.50;;;18.80;99.90;;;;;;5008508;28;20498;-81
2023/10/06 10:21:47;;;;;;;0.67;0.43;;;18.60;99.90;;;;;;5015205;28;20478;-82
2023/10/06 10:24:20;;;;;;;0.50;0.40;;;18.60;99.90;;;;;;5015786;28;20919;-77
2023/10/06 10:26:50;;;;;;;0.50;0.30;;;18.60;99.90;;;;;;5015428;28;20450;-81
2023/10/06 10:29:31;;;;;;;0.50;0.40;;;18.90;99.90;;;;;;5016087;28;20464;-80
2023/10/06 10:32:11;;;;;;;0.50;0.30;;;18.80;99.90;;;;;;5015817;28;20489;-80
2023/10/06 10:35:07;;;;;;;6.63;0.70;;;18.90;99.90;;;;;;5015730;28;20481;-80
2023/10/06 10:37:34;;;;;;;1.23;1.23;;;18.90;99.90;;;;;;5015436;28;20455;-81
2023/10/06 10:40:01;;;;;;;0.50;0.40;;;18.70;99.90;;;;;;5023429;28;20526;-81
2023/10/06 10:42:39;;;;;;;0.63;0.63;;;18.80;99.90;;;;;;5016015;28;20451;-81
2023/10/06 10:45:31;;;;;;;0.50;0.40;;;19.50;99.90;;;;;;5015511;28;20514;-81
2023/10/06 10:47:59;;;;;;;0.50;0.30;;;20.60;99.90;;;;;;5015492;28;20513;-80
2023/10/06 10:50:50;;;;;;;0.50;0.30;;;21.20;99.90;;;;;;5015632;28;20448;-79
2023/10/06 10:53:19;;;;;;;0.50;0.40;;;21.60;99.90;;;;;;5008474;28;20928;-79
2023/10/06 10:55:46;;;;;;;0.50;0.30;;;21.40;99.90;;;;;;5015289;28;20882;-82
2023/10/06 10:58:53;;;;;;;0.50;0.30;;;21.60;99.90;;;;;;5007576;28;20459;-81
2023/10/06 11:01:26;;;;;;;0.50;0.30;;;22.00;99.90;;;;;;5009152;28;20814;-81
2023/10/06 11:04:18;;;;;;;0.50;0.40;;;22.60;99.90;;;;;;5015495;28;20499;-82
2023/10/06 11:06:46;;;;;;;2.50;1.27;;;23.00;99.90;;;;;;5015935;28;21017;-81
2023/10/06 11:09:25;;;;;;;0.60;0.50;;;23.30;99.90;;;;;;5015065;28;20470;-81
2023/10/06 11:11:55;;;;;;;0.50;0.40;;;22.90;99.90;;;;;;5015567;28;20507;-80
2023/10/06 11:14:23;;;;;;;0.70;0.70;;;22.30;99.90;;;;;;5023873;28;20824;-81
2023/10/06 11:16:52;;;;;;;0.87;0.87;;;22.30;99.90;;;;;;5014990;28;20935;-80
2023/10/06 11:19:19;;;;;;;0.80;0.60;;;21.90;99.90;;;;;;5014811;28;20554;-81
2023/10/06 11:21:48;;;;;;;0.60;0.50;;;21.90;99.90;;;;;;5015000;28;20442;-80
2023/10/06 11:24:25;;;;;;;0.50;0.50;;;22.60;99.90;;;;;;5014630;28;20432;-77
2023/10/06 11:26:52;;;;;;;0.50;0.40;;;23.00;99.90;;;;;;5014604;28;20435;-80
2023/10/06 11:29:31;;;;;;;0.90;0.87;;;23.20;99.30;;;;;;5014307;28;20482;-80
2023/10/06 11:32:03;;;;;;;0.50;0.40;;;22.90;96.90;;;;;;5014368;28;20467;-80
2023/10/06 11:34:29;;;;;;;0.60;0.50;;;22.80;99.30;;;;;;5013997;28;20470;-80
2023/10/06 11:36:57;;;;;;;2.20;1.00;;;22.70;99.30;;;;;;5013728;28;20440;-80
2023/10/06 11:39:29;;;;;;;0.50;0.30;;;22.40;99.90;;;;;;5014296;28;20486;-81
2023/10/06 11:42:35;;;;;;;1.20;1.10;;;22.70;99.90;;;;;;5015292;28;21004;-80
2023/10/06 11:45:06;;;;;;;0.50;0.30;;;22.20;99.90;;;;;;5016144;28;20431;-80
2023/10/06 11:47:41;;;;;;;0.50;0.40;;;21.80;99.90;;;;;;5015517;28;20478;-81
2023/10/06 11:50:21;;;;;;;0.60;0.60;;;21.70;99.90;;;;;;5017600;28;20431;-79
2023/10/06 11:52:48;;;;;;;0.50;0.50;;;21.30;99.90;;;;;;5018911;28;20514;-82
2023/10/06 11:55:23;;;;;;;0.60;0.50;;;20.70;99.90;;;;;;5018775;28;20482;-81
2023/10/06 11:57:51;;;;;;;0.70;0.50;;;20.40;99.90;;;;;;5034868;28;20461;-80
2023/10/06 12:00:32;;;;;;;0.80;0.43;;;20.30;99.90;;;;;;5018553;28;20475;-81
2023/10/06 12:03:00;;;;;;;0.50;0.40;;;20.60;99.90;;;;;;5021236;28;20463;-80
2023/10/06 12:05:28;;;;;;;10.50;0.90;;;20.70;99.90;;;;;;5037403;28;20446;-80
2023/10/06 12:08:01;;;;;;;0.50;0.30;;;20.80;99.90;;;;;;5035361;28;20455;-80
2023/10/06 12:10:28;;;;;;;0.50;0.40;;;20.70;99.90;;;;;;5029499;28;20511;-81
2023/10/06 12:12:55;;;;;;;1.57;1.13;;;20.70;99.90;;;;;;5026777;28;20438;-82
2023/10/06 12:15:21;;;;;;;0.50;0.40;;;20.90;99.90;;;;;;5022366;28;20478;-81
2023/10/06 12:17:50;;;;;;;0.90;0.53;;;21.50;99.90;;;;;;5021547;28;20459;-81
2023/10/06 12:20:19;;;;;;;0.83;0.83;;;21.40;99.90;;;;;;5009316;28;20467;-80
2023/10/06 12:22:47;;;;;;;0.50;0.40;;;21.10;99.90;;;;;;5016913;28;20436;-80
2023/10/06 12:25:15;;;;;;;1.73;1.73;;;21.30;99.90;;;;;;5020368;28;20805;-80
2023/10/06 12:27:43;;;;;;;2.30;1.27;;;21.80;99.90;;;;;;5020678;28;20467;-81
2023/10/06 12:30:11;;;;;;;0.50;0.30;;;22.10;99.90;;;;;;5016543;28;20443;-77
2023/10/06 12:32:38;;;;;;;1.57;0.70;;;22.40;99.90;;;;;;5016860;28;20439;-80
2023/10/06 12:35:06;;;;;;;0.50;0.30;;;23.00;99.90;;;;;;5018474;28;20519;-80
2023/10/06 12:37:40;;;;;;;0.50;0.30;;;23.00;99.90;;;;;;5030881;28;20462;-80
2023/10/06 12:40:09;;;;;;;0.90;0.60;;;23.20;99.90;;;;;;5016954;28;20442;-80
2023/10/06 12:42:36;;;;;;;0.50;0.30;;;23.80;99.90;;;;;;5016521;28;20439;-80
2023/10/06 12:45:03;;;;;;;1.10;0.83;;;23.70;99.80;;;;;;5016516;28;20444;-78
2023/10/06 12:47:31;;;;;;;2.70;1.20;;;23.50;98.20;;;;;;5016403;28;20483;-80
2023/10/06 12:50:05;;;;;;;0.50;0.30;;;23.00;99.60;;;;;;5018203;28;20439;-80
2023/10/06 12:52:32;;;;;;;0.60;0.40;;;22.40;99.90;;;;;;5016357;28;20439;-80
2023/10/06 12:55:00;;;;;;;12.80;1.60;;;22.30;99.90;;;;;;5016616;28;20482;-80
2023/10/06 12:57:27;;;;;;;1.83;1.70;;;22.50;99.90;;;;;;5024086;28;20479;-80
2023/10/06 12:59:54;;;;;;;0.50;0.30;;;22.30;99.90;;;;;;5016257;28;20430;-80